sensor_id;sensor_type;location;lat;lon;timestamp;pressure;altitude;pressure_sealevel;temperature;humidity
77212;BME280;66206;0.000;0.000;2023-04-15T00:00:56;96832.15;;;23.91;27.43
77212;BME280;66206;0.000;0.000;2023-04-15T00:03:23;96828.54;;;23.87;27.46
77212;BME280;66206;0.000;0.000;2023-04-15T00:05:50;96827.55;;;24.03;27.29
77212;BME280;66206;0.000;0.000;2023-04-15T00:08:16;96823.52;;;24.02;27.44
77212;BME280;66206;0.000;0.000;2023-04-15T00:10:43;96827.99;;;23.04;28.43
77212;BME280;66206;0.000;0.000;2023-04-15T00:13:10;96828.37;;;23.24;28.28
77212;BME280;66206;0.000;0.000;2023-04-15T00:15:36;96827.72;;;23.05;28.44
77212;BME280;66206;0.000;0.000;2023-04-15T00:18:03;96829.55;;;23.00;28.52
77212;BME280;66206;0.000;0.000;2023-04-15T00:20:29;96829.52;;;23.30;28.22
77212;BME280;66206;0.000;0.000;2023-04-15T00:22:56;96825.21;;;23.35;28.04
77212;BME280;66206;0.000;0.000;2023-04-15T00:25:23;96817.06;;;23.78;27.67
77212;BME280;66206;0.000;0.000;2023-04-15T00:27:49;96815.94;;;23.86;27.53
77212;BME280;66206;0.000;0.000;2023-04-15T00:30:16;96813.39;;;23.54;27.80
77212;BME280;66206;0.000;0.000;2023-04-15T00:32:42;96811.40;;;23.57;27.77
77212;BME280;66206;0.000;0.000;2023-04-15T00:35:09;96808.19;;;23.56;27.76
77212;BME280;66206;0.000;0.000;2023-04-15T00:37:35;96808.61;;;23.64;27.74
77212;BME280;66206;0.000;0.000;2023-04-15T00:40:02;96804.22;;;23.64;27.57
77212;BME280;66206;0.000;0.000;2023-04-15T00:42:29;96802.46;;;23.33;27.79
77212;BME280;66206;0.000;0.000;2023-04-15T00:44:56;96800.86;;;23.43;27.83
77212;BME280;66206;0.000;0.000;2023-04-15T00:47:22;96796.36;;;23.43;27.78
77212;BME280;66206;0.000;0.000;2023-04-15T00:49:49;96797.21;;;23.30;27.81
77212;BME280;66206;0.000;0.000;2023-04-15T00:52:15;96801.91;;;23.18;27.89
77212;BME280;66206;0.000;0.000;2023-04-15T00:54:42;96802.55;;;23.20;27.86
77212;BME280;66206;0.000;0.000;2023-04-15T00:57:08;96799.24;;;23.05;28.02
77212;BME280;66206;0.000;0.000;2023-04-15T00:59:35;96794.82;;;22.98;28.08
77212;BME280;66206;0.000;0.000;2023-04-15T01:02:02;96790.35;;;22.83;28.29
77212;BME280;66206;0.000;0.000;2023-04-15T01:04:29;96791.94;;;22.88;28.20
77212;BME280;66206;0.000;0.000;2023-04-15T01:06:56;96790.60;;;22.77;28.24
77212;BME280;66206;0.000;0.000;2023-04-15T01:09:22;96784.91;;;22.67;28.33
77212;BME280;66206;0.000;0.000;2023-04-15T01:11:49;96788.89;;;22.85;28.28
77212;BME280;66206;0.000;0.000;2023-04-15T01:14:15;96791.07;;;22.69;28.16
77212;BME280;66206;0.000;0.000;2023-04-15T01:16:42;96791.50;;;22.60;28.36
77212;BME280;66206;0.000;0.000;2023-04-15T01:19:09;96791.33;;;22.71;28.42
77212;BME280;66206;0.000;0.000;2023-04-15T01:21:36;96787.21;;;22.66;28.47
77212;BME280;66206;0.000;0.000;2023-04-15T01:24:03;96788.98;;;22.68;28.50
77212;BME280;66206;0.000;0.000;2023-04-15T01:26:28;96785.49;;;22.54;28.46
77212;BME280;66206;0.000;0.000;2023-04-15T01:28:55;96781.84;;;22.53;28.48
77212;BME280;66206;0.000;0.000;2023-04-15T01:31:21;96778.31;;;22.62;28.41
77212;BME280;66206;0.000;0.000;2023-04-15T01:33:48;96776.66;;;22.44;28.51
77212;BME280;66206;0.000;0.000;2023-04-15T01:36:15;96775.54;;;22.63;28.39
77212;BME280;66206;0.000;0.000;2023-04-15T01:38:41;96771.91;;;22.42;28.48
77212;BME280;66206;0.000;0.000;2023-04-15T01:41:08;96769.96;;;22.37;28.62
77212;BME280;66206;0.000;0.000;2023-04-15T01:43:35;96769.04;;;22.58;28.40
77212;BME280;66206;0.000;0.000;2023-04-15T01:46:01;96770.40;;;22.53;28.44
77212;BME280;66206;0.000;0.000;2023-04-15T01:48:28;96767.84;;;22.52;28.34
77212;BME280;66206;0.000;0.000;2023-04-15T01:50:54;96771.81;;;22.50;28.40
77212;BME280;66206;0.000;0.000;2023-04-15T01:53:21;96772.26;;;22.42;28.43
77212;BME280;66206;0.000;0.000;2023-04-15T01:55:48;96769.05;;;22.63;28.33
77212;BME280;66206;0.000;0.000;2023-04-15T01:58:14;96766.38;;;22.18;28.57
77212;BME280;66206;0.000;0.000;2023-04-15T02:00:41;96765.41;;;22.32;28.45
77212;BME280;66206;0.000;0.000;2023-04-15T02:03:08;96760.99;;;22.20;28.47
77212;BME280;66206;0.000;0.000;2023-04-15T02:05:34;96759.02;;;22.48;28.39
77212;BME280;66206;0.000;0.000;2023-04-15T02:08:01;96760.30;;;22.49;28.37
77212;BME280;66206;0.000;0.000;2023-04-15T02:10:27;96759.95;;;22.30;28.33
77212;BME280;66206;0.000;0.000;2023-04-15T02:12:54;96757.78;;;22.49;28.40
77212;BME280;66206;0.000;0.000;2023-04-15T02:15:21;96758.80;;;22.34;28.32
77212;BME280;66206;0.000;0.000;2023-04-15T02:17:47;96759.64;;;22.37;28.40
77212;BME280;66206;0.000;0.000;2023-04-15T02:20:14;96760.41;;;22.38;28.29
77212;BME280;66206;0.000;0.000;2023-04-15T02:22:40;96761.41;;;22.30;28.43
77212;BME280;66206;0.000;0.000;2023-04-15T02:25:07;96763.84;;;22.20;28.39
77212;BME280;66206;0.000;0.000;2023-04-15T02:27:34;96766.51;;;22.35;28.35
77212;BME280;66206;0.000;0.000;2023-04-15T02:30:01;96768.86;;;22.43;28.46
77212;BME280;66206;0.000;0.000;2023-04-15T02:32:27;96768.98;;;22.31;28.50
77212;BME280;66206;0.000;0.000;2023-04-15T02:34:54;96769.86;;;22.17;28.58
77212;BME280;66206;0.000;0.000;2023-04-15T02:37:21;96768.53;;;22.11;28.52
77212;BME280;66206;0.000;0.000;2023-04-15T02:39:47;96767.42;;;22.21;28.48
77212;BME280;66206;0.000;0.000;2023-04-15T02:42:14;96764.02;;;22.19;28.46
77212;BME280;66206;0.000;0.000;2023-04-15T02:44:40;96766.32;;;22.26;28.32
77212;BME280;66206;0.000;0.000;2023-04-15T02:47:07;96767.03;;;22.05;28.51
77212;BME280;66206;0.000;0.000;2023-04-15T02:49:33;96766.58;;;22.07;28.64
77212;BME280;66206;0.000;0.000;2023-04-15T02:52:00;96765.64;;;22.24;28.45
77212;BME280;66206;0.000;0.000;2023-04-15T02:54:27;96770.32;;;21.88;28.63
77212;BME280;66206;0.000;0.000;2023-04-15T02:56:53;96767.07;;;22.11;28.48
77212;BME280;66206;0.000;0.000;2023-04-15T02:59:20;96765.33;;;22.24;28.36
77212;BME280;66206;0.000;0.000;2023-04-15T03:01:46;96763.51;;;22.13;28.43
77212;BME280;66206;0.000;0.000;2023-04-15T03:04:13;96762.70;;;22.20;28.33
77212;BME280;66206;0.000;0.000;2023-04-15T03:06:39;96764.72;;;22.15;28.50
77212;BME280;66206;0.000;0.000;2023-04-15T03:09:06;96763.15;;;22.27;28.36
77212;BME280;66206;0.000;0.000;2023-04-15T03:11:33;96763.20;;;22.18;28.44
77212;BME280;66206;0.000;0.000;2023-04-15T03:13:59;96760.80;;;22.27;28.36
77212;BME280;66206;0.000;0.000;2023-04-15T03:16:26;96761.29;;;22.29;28.27
77212;BME280;66206;0.000;0.000;2023-04-15T03:18:52;96760.81;;;22.16;28.29
77212;BME280;66206;0.000;0.000;2023-04-15T03:21:19;96759.90;;;22.41;28.13
77212;BME280;66206;0.000;0.000;2023-04-15T03:23:45;96762.72;;;22.39;28.07
77212;BME280;66206;0.000;0.000;2023-04-15T03:26:22;96759.16;;;22.53;28.02
77212;BME280;66206;0.000;0.000;2023-04-15T03:28:39;96758.17;;;22.41;27.96
77212;BME280;66206;0.000;0.000;2023-04-15T03:31:05;96758.53;;;22.37;27.95
77212;BME280;66206;0.000;0.000;2023-04-15T03:33:32;96756.50;;;22.47;27.90
77212;BME280;66206;0.000;0.000;2023-04-15T03:35:58;96756.72;;;22.52;27.95
77212;BME280;66206;0.000;0.000;2023-04-15T03:38:25;96755.89;;;22.35;27.84
77212;BME280;66206;0.000;0.000;2023-04-15T03:40:51;96755.88;;;22.41;27.95
77212;BME280;66206;0.000;0.000;2023-04-15T03:43:18;96754.45;;;22.42;27.96
77212;BME280;66206;0.000;0.000;2023-04-15T03:45:45;96751.59;;;22.49;27.94
77212;BME280;66206;0.000;0.000;2023-04-15T03:48:11;96750.70;;;22.40;27.91
77212;BME280;66206;0.000;0.000;2023-04-15T03:50:38;96752.41;;;22.42;27.87
77212;BME280;66206;0.000;0.000;2023-04-15T03:53:04;96753.84;;;22.54;27.78
77212;BME280;66206;0.000;0.000;2023-04-15T03:55:31;96755.29;;;22.62;27.79
77212;BME280;66206;0.000;0.000;2023-04-15T03:57:58;96754.40;;;22.54;27.75
77212;BME280;66206;0.000;0.000;2023-04-15T04:00:24;96754.13;;;22.53;27.74
77212;BME280;66206;0.000;0.000;2023-04-15T04:02:51;96756.30;;;22.53;27.66
77212;BME280;66206;0.000;0.000;2023-04-15T04:05:17;96758.26;;;22.75;27.64
77212;BME280;66206;0.000;0.000;2023-04-15T04:07:44;96759.07;;;22.50;27.66
77212;BME280;66206;0.000;0.000;2023-04-15T04:10:10;96759.38;;;22.60;27.69
77212;BME280;66206;0.000;0.000;2023-04-15T04:12:37;96758.39;;;22.62;27.72
77212;BME280;66206;0.000;0.000;2023-04-15T04:15:04;96756.54;;;22.58;27.73
77212;BME280;66206;0.000;0.000;2023-04-15T04:17:31;96759.74;;;22.56;27.73
77212;BME280;66206;0.000;0.000;2023-04-15T04:19:57;96760.89;;;22.58;27.76
77212;BME280;66206;0.000;0.000;2023-04-15T04:22:24;96761.22;;;22.49;27.76
77212;BME280;66206;0.000;0.000;2023-04-15T04:24:50;96764.32;;;22.53;27.78
77212;BME280;66206;0.000;0.000;2023-04-15T04:27:17;96763.04;;;22.48;27.87
77212;BME280;66206;0.000;0.000;2023-04-15T04:29:43;96767.44;;;22.53;27.82
77212;BME280;66206;0.000;0.000;2023-04-15T04:32:10;96766.00;;;22.45;27.87
77212;BME280;66206;0.000;0.000;2023-04-15T04:34:37;96768.01;;;22.49;27.93
77212;BME280;66206;0.000;0.000;2023-04-15T04:37:03;96769.08;;;22.44;27.94
77212;BME280;66206;0.000;0.000;2023-04-15T04:39:30;96770.18;;;22.39;27.94
77212;BME280;66206;0.000;0.000;2023-04-15T04:41:56;96770.61;;;22.32;27.95
77212;BME280;66206;0.000;0.000;2023-04-15T04:44:23;96769.58;;;22.44;27.97
77212;BME280;66206;0.000;0.000;2023-04-15T04:46:50;96769.16;;;22.36;27.88
77212;BME280;66206;0.000;0.000;2023-04-15T04:49:16;96771.38;;;22.47;27.93
77212;BME280;66206;0.000;0.000;2023-04-15T04:51:43;96772.38;;;22.52;27.86
77212;BME280;66206;0.000;0.000;2023-04-15T04:54:09;96771.23;;;22.51;27.87
77212;BME280;66206;0.000;0.000;2023-04-15T04:56:36;96769.94;;;22.41;27.91
77212;BME280;66206;0.000;0.000;2023-04-15T04:59:02;96771.79;;;22.45;27.91
77212;BME280;66206;0.000;0.000;2023-04-15T05:01:29;96773.15;;;22.39;27.89
77212;BME280;66206;0.000;0.000;2023-04-15T05:03:56;96773.82;;;22.37;27.89
77212;BME280;66206;0.000;0.000;2023-04-15T05:06:22;96770.24;;;22.29;27.88
77212;BME280;66206;0.000;0.000;2023-04-15T05:08:49;96767.56;;;22.33;27.88
77212;BME280;66206;0.000;0.000;2023-04-15T05:11:15;96769.65;;;22.34;27.91
77212;BME280;66206;0.000;0.000;2023-04-15T05:13:42;96769.47;;;22.31;27.88
77212;BME280;66206;0.000;0.000;2023-04-15T05:16:09;96770.23;;;22.28;27.91
77212;BME280;66206;0.000;0.000;2023-04-15T05:18:35;96770.01;;;22.30;27.87
77212;BME280;66206;0.000;0.000;2023-04-15T05:21:02;96773.85;;;22.34;27.94
77212;BME280;66206;0.000;0.000;2023-04-15T05:23:28;96775.94;;;22.36;27.83
77212;BME280;66206;0.000;0.000;2023-04-15T05:25:55;96776.19;;;22.32;27.76
77212;BME280;66206;0.000;0.000;2023-04-15T05:28:22;96777.16;;;22.31;27.81
77212;BME280;66206;0.000;0.000;2023-04-15T05:30:48;96778.98;;;22.37;27.84
77212;BME280;66206;0.000;0.000;2023-04-15T05:33:15;96781.47;;;22.33;27.88
77212;BME280;66206;0.000;0.000;2023-04-15T05:35:42;96782.62;;;22.36;27.88
77212;BME280;66206;0.000;0.000;2023-04-15T05:38:08;96786.69;;;22.38;27.84
77212;BME280;66206;0.000;0.000;2023-04-15T05:40:35;96784.24;;;22.32;27.87
77212;BME280;66206;0.000;0.000;2023-04-15T05:43:02;96788.24;;;22.17;27.84
77212;BME280;66206;0.000;0.000;2023-04-15T05:45:28;96792.05;;;22.36;27.84
77212;BME280;66206;0.000;0.000;2023-04-15T05:47:55;96795.48;;;22.44;27.82
77212;BME280;66206;0.000;0.000;2023-04-15T05:50:21;96795.12;;;22.23;27.75
77212;BME280;66206;0.000;0.000;2023-04-15T05:52:48;96796.09;;;22.41;27.71
77212;BME280;66206;0.000;0.000;2023-04-15T05:55:15;96798.78;;;22.45;27.78
77212;BME280;66206;0.000;0.000;2023-04-15T05:57:41;96803.33;;;22.40;27.72
77212;BME280;66206;0.000;0.000;2023-04-15T06:00:08;96804.52;;;22.35;27.69
77212;BME280;66206;0.000;0.000;2023-04-15T06:02:35;96802.20;;;22.41;27.66
77212;BME280;66206;0.000;0.000;2023-04-15T06:05:02;96804.41;;;22.40;27.69
77212;BME280;66206;0.000;0.000;2023-04-15T06:07:28;96800.61;;;22.29;27.66
77212;BME280;66206;0.000;0.000;2023-04-15T06:09:55;96799.67;;;22.31;27.67
77212;BME280;66206;0.000;0.000;2023-04-15T06:12:22;96804.82;;;22.40;27.67
77212;BME280;66206;0.000;0.000;2023-04-15T06:14:48;96804.34;;;22.49;27.63
77212;BME280;66206;0.000;0.000;2023-04-15T06:17:15;96805.56;;;22.45;27.61
77212;BME280;66206;0.000;0.000;2023-04-15T06:19:41;96808.08;;;22.33;27.66
77212;BME280;66206;0.000;0.000;2023-04-15T06:22:08;96807.60;;;22.39;27.64
77212;BME280;66206;0.000;0.000;2023-04-15T06:24:34;96805.33;;;22.47;27.55
77212;BME280;66206;0.000;0.000;2023-04-15T06:27:01;96809.88;;;22.40;27.61
77212;BME280;66206;0.000;0.000;2023-04-15T06:29:28;96808.20;;;22.33;27.62
77212;BME280;66206;0.000;0.000;2023-04-15T06:31:54;96808.77;;;22.32;27.68
77212;BME280;66206;0.000;0.000;2023-04-15T06:34:21;96808.28;;;22.40;27.65
77212;BME280;66206;0.000;0.000;2023-04-15T06:36:47;96809.73;;;22.36;27.66
77212;BME280;66206;0.000;0.000;2023-04-15T06:39:14;96813.45;;;22.23;27.64
77212;BME280;66206;0.000;0.000;2023-04-15T06:41:41;96814.05;;;22.24;27.61
77212;BME280;66206;0.000;0.000;2023-04-15T06:44:08;96811.03;;;22.22;27.67
77212;BME280;66206;0.000;0.000;2023-04-15T06:46:34;96815.14;;;22.23;27.62
77212;BME280;66206;0.000;0.000;2023-04-15T06:49:01;96810.72;;;22.34;27.58
77212;BME280;66206;0.000;0.000;2023-04-15T06:51:27;96810.60;;;22.34;27.61
77212;BME280;66206;0.000;0.000;2023-04-15T06:53:54;96808.43;;;22.32;27.54
77212;BME280;66206;0.000;0.000;2023-04-15T06:56:21;96808.97;;;22.32;27.49
77212;BME280;66206;0.000;0.000;2023-04-15T06:58:47;96811.35;;;22.39;27.51
77212;BME280;66206;0.000;0.000;2023-04-15T07:01:14;96808.60;;;22.41;27.48
77212;BME280;66206;0.000;0.000;2023-04-15T07:03:40;96810.80;;;22.40;27.56
77212;BME280;66206;0.000;0.000;2023-04-15T07:06:07;96810.83;;;22.45;27.48
77212;BME280;66206;0.000;0.000;2023-04-15T07:08:33;96811.60;;;22.33;27.60
77212;BME280;66206;0.000;0.000;2023-04-15T07:11:00;96809.64;;;22.37;27.52
77212;BME280;66206;0.000;0.000;2023-04-15T07:13:28;96809.25;;;22.31;27.45
77212;BME280;66206;0.000;0.000;2023-04-15T07:15:55;96811.76;;;22.37;27.52
77212;BME280;66206;0.000;0.000;2023-04-15T07:18:22;96810.34;;;22.40;27.45
77212;BME280;66206;0.000;0.000;2023-04-15T07:20:48;96811.23;;;22.26;27.52
77212;BME280;66206;0.000;0.000;2023-04-15T07:23:15;96813.96;;;22.35;27.49
77212;BME280;66206;0.000;0.000;2023-04-15T07:25:41;96817.61;;;22.40;27.43
77212;BME280;66206;0.000;0.000;2023-04-15T07:28:08;96815.12;;;22.44;27.46
77212;BME280;66206;0.000;0.000;2023-04-15T07:30:35;96813.44;;;22.53;27.38
77212;BME280;66206;0.000;0.000;2023-04-15T07:33:01;96817.06;;;22.41;27.40
77212;BME280;66206;0.000;0.000;2023-04-15T07:35:28;96814.19;;;22.32;27.46
77212;BME280;66206;0.000;0.000;2023-04-15T07:37:54;96816.29;;;22.32;27.54
77212;BME280;66206;0.000;0.000;2023-04-15T07:40:21;96816.74;;;22.34;27.54
77212;BME280;66206;0.000;0.000;2023-04-15T07:42:48;96818.20;;;22.38;27.47
77212;BME280;66206;0.000;0.000;2023-04-15T07:45:14;96824.31;;;22.33;27.57
77212;BME280;66206;0.000;0.000;2023-04-15T07:47:41;96824.83;;;22.19;27.47
77212;BME280;66206;0.000;0.000;2023-04-15T07:50:08;96821.51;;;22.38;27.46
77212;BME280;66206;0.000;0.000;2023-04-15T07:52:35;96820.18;;;22.30;27.51
77212;BME280;66206;0.000;0.000;2023-04-15T07:55:01;96820.72;;;22.30;27.55
77212;BME280;66206;0.000;0.000;2023-04-15T07:57:28;96820.01;;;22.45;27.47
77212;BME280;66206;0.000;0.000;2023-04-15T07:59:55;96826.77;;;22.32;27.49
77212;BME280;66206;0.000;0.000;2023-04-15T08:02:21;96823.67;;;22.30;27.51
77212;BME280;66206;0.000;0.000;2023-04-15T08:04:48;96822.02;;;22.23;27.54
77212;BME280;66206;0.000;0.000;2023-04-15T08:07:14;96824.26;;;22.30;27.52
77212;BME280;66206;0.000;0.000;2023-04-15T08:09:41;96821.58;;;22.34;27.54
77212;BME280;66206;0.000;0.000;2023-04-15T08:12:07;96820.40;;;22.32;27.55
77212;BME280;66206;0.000;0.000;2023-04-15T08:14:34;96822.81;;;22.39;27.57
77212;BME280;66206;0.000;0.000;2023-04-15T08:17:01;96824.18;;;22.43;27.51
77212;BME280;66206;0.000;0.000;2023-04-15T08:19:27;96826.42;;;22.27;27.52
77212;BME280;66206;0.000;0.000;2023-04-15T08:21:54;96830.65;;;22.26;27.55
77212;BME280;66206;0.000;0.000;2023-04-15T08:24:20;96829.38;;;22.35;27.51
77212;BME280;66206;0.000;0.000;2023-04-15T08:26:47;96837.80;;;22.35;27.51
77212;BME280;66206;0.000;0.000;2023-04-15T08:29:14;96838.73;;;22.28;27.52
77212;BME280;66206;0.000;0.000;2023-04-15T08:31:40;96839.02;;;22.31;27.63
77212;BME280;66206;0.000;0.000;2023-04-15T08:34:07;96844.75;;;22.24;27.61
77212;BME280;66206;0.000;0.000;2023-04-15T08:36:34;96846.98;;;22.32;27.58
77212;BME280;66206;0.000;0.000;2023-04-15T08:39:00;96844.40;;;22.38;27.53
77212;BME280;66206;0.000;0.000;2023-04-15T08:41:27;96840.41;;;22.38;27.49
77212;BME280;66206;0.000;0.000;2023-04-15T08:43:53;96840.84;;;22.40;27.55
77212;BME280;66206;0.000;0.000;2023-04-15T08:46:22;96839.93;;;22.33;27.51
77212;BME280;66206;0.000;0.000;2023-04-15T08:48:48;96841.57;;;22.38;27.50
77212;BME280;66206;0.000;0.000;2023-04-15T08:51:15;96843.94;;;22.32;27.57
77212;BME280;66206;0.000;0.000;2023-04-15T08:53:43;96846.28;;;22.35;27.52
77212;BME280;66206;0.000;0.000;2023-04-15T08:56:09;96849.70;;;22.32;27.51
77212;BME280;66206;0.000;0.000;2023-04-15T08:58:37;96851.96;;;22.31;27.53
77212;BME280;66206;0.000;0.000;2023-04-15T09:01:04;96851.42;;;22.38;27.51
77212;BME280;66206;0.000;0.000;2023-04-15T09:03:31;96849.58;;;22.31;27.52
77212;BME280;66206;0.000;0.000;2023-04-15T09:05:57;96849.59;;;22.32;27.59
77212;BME280;66206;0.000;0.000;2023-04-15T09:08:24;96846.29;;;22.29;27.57
77212;BME280;66206;0.000;0.000;2023-04-15T09:10:52;96848.57;;;22.24;27.57
77212;BME280;66206;0.000;0.000;2023-04-15T09:13:19;96854.66;;;22.33;27.96
77212;BME280;66206;0.000;0.000;2023-04-15T09:15:45;96856.73;;;22.24;28.74
77212;BME280;66206;0.000;0.000;2023-04-15T09:18:12;96858.12;;;22.18;28.97
77212;BME280;66206;0.000;0.000;2023-04-15T09:20:40;96859.44;;;22.33;28.93
77212;BME280;66206;0.000;0.000;2023-04-15T09:23:14;96863.62;;;22.12;29.00
77212;BME280;66206;0.000;0.000;2023-04-15T09:25:35;96864.53;;;22.16;28.91
77212;BME280;66206;0.000;0.000;2023-04-15T09:28:03;96867.91;;;22.31;28.90
77212;BME280;66206;0.000;0.000;2023-04-15T09:30:29;96867.26;;;22.27;28.98
77212;BME280;66206;0.000;0.000;2023-04-15T09:32:57;96873.34;;;22.49;28.94
77212;BME280;66206;0.000;0.000;2023-04-15T09:35:24;96874.88;;;22.31;28.80
77212;BME280;66206;0.000;0.000;2023-04-15T09:37:51;96873.31;;;22.34;28.96
77212;BME280;66206;0.000;0.000;2023-04-15T09:40:29;96875.98;;;22.51;29.54
77212;BME280;66206;0.000;0.000;2023-04-15T09:42:53;96880.46;;;21.88;30.27
77212;BME280;66206;0.000;0.000;2023-04-15T09:45:15;96884.97;;;22.04;30.33
77212;BME280;66206;0.000;0.000;2023-04-15T09:47:41;96888.01;;;22.40;30.02
77212;BME280;66206;0.000;0.000;2023-04-15T09:50:08;96881.29;;;22.56;29.93
77212;BME280;66206;0.000;0.000;2023-04-15T09:52:39;96889.61;;;22.97;29.21
77212;BME280;66206;0.000;0.000;2023-04-15T09:55:01;96890.27;;;23.07;29.19
77212;BME280;66206;0.000;0.000;2023-04-15T09:57:33;96882.34;;;23.11;28.95
77212;BME280;66206;0.000;0.000;2023-04-15T09:59:54;96885.43;;;23.27;28.80
77212;BME280;66206;0.000;0.000;2023-04-15T10:02:21;96883.44;;;23.78;28.44
77212;BME280;66206;0.000;0.000;2023-04-15T10:04:48;96884.74;;;23.74;28.34
77212;BME280;66206;0.000;0.000;2023-04-15T10:07:14;96888.20;;;23.51;28.50
77212;BME280;66206;0.000;0.000;2023-04-15T10:09:42;96893.89;;;23.76;28.31
77212;BME280;66206;0.000;0.000;2023-04-15T10:12:09;96892.13;;;23.62;28.48
77212;BME280;66206;0.000;0.000;2023-04-15T10:14:37;96894.97;;;23.73;28.26
77212;BME280;66206;0.000;0.000;2023-04-15T10:17:04;96899.13;;;23.82;28.29
77212;BME280;66206;0.000;0.000;2023-04-15T10:19:32;96901.39;;;24.03;28.13
77212;BME280;66206;0.000;0.000;2023-04-15T10:21:59;96902.24;;;24.10;28.09
77212;BME280;66206;0.000;0.000;2023-04-15T10:24:25;96902.24;;;23.97;28.17
77212;BME280;66206;0.000;0.000;2023-04-15T10:26:52;96904.43;;;24.14;27.97
77212;BME280;66206;0.000;0.000;2023-04-15T10:29:19;96900.55;;;23.91;28.18
77212;BME280;66206;0.000;0.000;2023-04-15T10:31:46;96902.53;;;24.04;28.00
77212;BME280;66206;0.000;0.000;2023-04-15T10:34:13;96904.09;;;24.05;28.04
77212;BME280;66206;0.000;0.000;2023-04-15T10:36:40;96904.60;;;24.47;27.62
77212;BME280;66206;0.000;0.000;2023-04-15T10:39:37;96906.30;;;24.10;27.87
77212;BME280;66206;0.000;0.000;2023-04-15T10:41:32;96907.37;;;23.96;28.06
77212;BME280;66206;0.000;0.000;2023-04-15T10:43:59;96907.26;;;24.02;27.98
77212;BME280;66206;0.000;0.000;2023-04-15T10:46:34;96904.90;;;24.23;27.80
77212;BME280;66206;0.000;0.000;2023-04-15T10:48:55;96897.49;;;24.20;27.83
77212;BME280;66206;0.000;0.000;2023-04-15T10:51:25;96896.80;;;24.38;27.75
77212;BME280;66206;0.000;0.000;2023-04-15T10:53:47;96901.28;;;24.05;28.02
77212;BME280;66206;0.000;0.000;2023-04-15T10:56:13;96894.37;;;24.32;27.69
77212;BME280;66206;0.000;0.000;2023-04-15T10:58:42;96895.42;;;24.44;27.62
77212;BME280;66206;0.000;0.000;2023-04-15T11:01:09;96900.63;;;24.31;27.71
77212;BME280;66206;0.000;0.000;2023-04-15T11:03:36;96899.40;;;24.40;27.61
77212;BME280;66206;0.000;0.000;2023-04-15T11:06:03;96902.69;;;24.18;27.75
77212;BME280;66206;0.000;0.000;2023-04-15T11:09:02;96904.68;;;24.21;27.77
77212;BME280;66206;0.000;0.000;2023-04-15T11:10:57;96908.97;;;24.17;27.91
77212;BME280;66206;0.000;0.000;2023-04-15T11:13:25;96906.79;;;24.39;27.63
77212;BME280;66206;0.000;0.000;2023-04-15T11:15:54;96907.65;;;24.41;27.52
77212;BME280;66206;0.000;0.000;2023-04-15T11:18:22;96909.33;;;24.46;27.37
77212;BME280;66206;0.000;0.000;2023-04-15T11:20:49;96912.82;;;24.19;27.71
77212;BME280;66206;0.000;0.000;2023-04-15T11:23:16;96917.36;;;23.85;27.59
77212;BME280;66206;0.000;0.000;2023-04-15T11:25:43;96915.21;;;23.84;27.58
77212;BME280;66206;0.000;0.000;2023-04-15T11:28:10;96916.18;;;23.61;28.08
77212;BME280;66206;0.000;0.000;2023-04-15T11:30:38;96921.50;;;23.76;27.87
77212;BME280;66206;0.000;0.000;2023-04-15T11:33:05;96922.05;;;23.74;27.82
77212;BME280;66206;0.000;0.000;2023-04-15T11:35:32;96924.52;;;23.21;28.42
77212;BME280;66206;0.000;0.000;2023-04-15T11:38:01;96934.47;;;23.13;28.54
77212;BME280;66206;0.000;0.000;2023-04-15T11:40:28;96934.45;;;23.12;28.47
77212;BME280;66206;0.000;0.000;2023-04-15T11:43:03;96926.60;;;23.39;28.28
77212;BME280;66206;0.000;0.000;2023-04-15T11:45:24;96931.72;;;23.15;28.16
77212;BME280;66206;0.000;0.000;2023-04-15T11:47:51;96933.68;;;23.01;28.19
77212;BME280;66206;0.000;0.000;2023-04-15T11:50:18;96933.77;;;22.91;27.99
77212;BME280;66206;0.000;0.000;2023-04-15T11:52:52;96936.90;;;22.85;27.90
77212;BME280;66206;0.000;0.000;2023-04-15T11:55:14;96931.92;;;22.80;27.93
77212;BME280;66206;0.000;0.000;2023-04-15T11:57:40;96937.18;;;22.62;28.35
77212;BME280;66206;0.000;0.000;2023-04-15T12:00:07;96935.49;;;22.64;28.35
77212;BME280;66206;0.000;0.000;2023-04-15T12:02:35;96937.03;;;22.64;28.50
77212;BME280;66206;0.000;0.000;2023-04-15T12:05:02;96934.82;;;22.70;28.42
77212;BME280;66206;0.000;0.000;2023-04-15T12:07:29;96936.38;;;22.50;28.52
77212;BME280;66206;0.000;0.000;2023-04-15T12:09:56;96938.17;;;22.41;28.50
77212;BME280;66206;0.000;0.000;2023-04-15T12:12:25;96941.94;;;22.83;28.31
77212;BME280;66206;0.000;0.000;2023-04-15T12:14:52;96944.04;;;22.64;28.37
77212;BME280;66206;0.000;0.000;2023-04-15T12:17:18;96948.16;;;22.11;28.72
77212;BME280;66206;0.000;0.000;2023-04-15T12:19:45;96954.41;;;22.26;28.59
77212;BME280;66206;0.000;0.000;2023-04-15T12:22:12;96957.60;;;22.36;28.50
77212;BME280;66206;0.000;0.000;2023-04-15T12:24:39;96957.51;;;22.37;28.53
77212;BME280;66206;0.000;0.000;2023-04-15T12:27:07;96960.52;;;22.14;28.67
77212;BME280;66206;0.000;0.000;2023-04-15T12:29:35;96961.16;;;22.57;28.43
77212;BME280;66206;0.000;0.000;2023-04-15T12:32:04;96966.06;;;22.41;28.52
77212;BME280;66206;0.000;0.000;2023-04-15T12:34:31;96969.43;;;22.81;28.18
77212;BME280;66206;0.000;0.000;2023-04-15T12:36:59;96970.26;;;22.80;28.18
77212;BME280;66206;0.000;0.000;2023-04-15T12:39:27;96976.80;;;22.87;28.14
77212;BME280;66206;0.000;0.000;2023-04-15T12:41:54;96979.44;;;22.99;28.09
77212;BME280;66206;0.000;0.000;2023-04-15T12:44:21;96982.54;;;23.05;28.02
77212;BME280;66206;0.000;0.000;2023-04-15T12:46:48;96985.49;;;23.12;27.92
77212;BME280;66206;0.000;0.000;2023-04-15T12:49:15;96986.00;;;22.90;28.14
77212;BME280;66206;0.000;0.000;2023-04-15T12:51:42;96982.41;;;22.34;28.92
77212;BME280;66206;0.000;0.000;2023-04-15T12:54:08;96984.84;;;22.70;29.03
77212;BME280;66206;0.000;0.000;2023-04-15T12:56:35;96986.23;;;22.49;28.89
77212;BME280;66206;0.000;0.000;2023-04-15T12:59:01;96990.27;;;23.08;28.08
77212;BME280;66206;0.000;0.000;2023-04-15T13:01:28;96993.69;;;23.23;27.94
77212;BME280;66206;0.000;0.000;2023-04-15T13:03:55;96994.82;;;23.35;27.92
77212;BME280;66206;0.000;0.000;2023-04-15T13:06:21;96997.60;;;23.67;27.55